CST,Max TemperatureF,Mean TemperatureF,Min TemperatureF,Max Dew PointF,MeanDew PointF,Min DewpointF,Max Humidity, Mean Humidity, Min Humidity, Max Sea Level PressureIn, Mean Sea Level PressureIn, Min Sea Level PressureIn, Max VisibilityMiles, Mean VisibilityMiles, Min VisibilityMiles, Max Wind SpeedMPH, Mean Wind SpeedMPH, Max Gust SpeedMPH,PrecipitationIn, CloudCover, Events, WindDirDegrees
2013-11-1,48,43,38,44,40,37,93,85,76,29.77,29.59,29.41,10,9,5,16,11,21,0.07,7,Rain,260
2013-11-2,47,39,30,39,36,30,100,86,71,30.17,29.97,29.77,10,8,3,18,7,21,0.00,5,,314
2013-11-3,52,39,26,37,31,25,100,74,48,30.33,30.27,30.18,10,7,0,15,6,18,0.00,0,Fog,145
2013-11-4,57,49,41,44,39,35,76,66,55,30.26,30.19,30.10,10,10,10,25,13,32,0.00,3,,162
2013-11-5,54,52,49,52,48,44,89,83,77,30.27,30.15,29.96,10,7,1,25,10,32,0.11,8,Rain,159
2013-11-6,57,44,31,55,44,27,100,89,78,30.20,29.95,29.80,10,8,2,28,13,38,0.70,7,Rain,252
2013-11-7,44,35,25,34,29,24,92,77,62,30.28,30.24,30.18,10,9,7,21,7,25,0.00,2,,261
2013-11-8,49,36,23,33,29,21,92,69,46,30.36,30.21,29.95,10,9,5,18,9,25,0.00,1,,182
2013-11-9,59,48,37,39,36,28,76,62,47,30.15,29.97,29.88,10,10,10,29,18,36,0.00,1,,249
2013-11-10,49,40,31,33,29,27,78,62,46,30.37,30.29,30.17,10,10,6,21,9,26,0.00,2,,260
2013-11-11,47,35,22,36,30,16,96,77,58,30.55,30.26,30.12,10,6,1,22,12,28,0.07,7,Rain-Snow,330
2013-11-12,32,25,18,21,17,14,84,72,59,30.74,30.68,30.57,10,10,10,18,10,22,0.00,0,,299
2013-11-13,40,28,16,21,17,13,80,57,34,30.63,30.43,30.20,10,10,10,23,11,31,0.00,0,,213
2013-11-14,50,40,30,27,23,20,69,54,39,30.18,30.05,29.97,10,10,10,20,11,26,0.00,0,,198
2013-11-15,50,43,35,36,31,27,85,68,50,30.00,29.98,29.94,10,10,5,16,9,20,T,3,,190
2013-11-16,61,50,39,56,48,35,96,88,79,29.94,29.77,29.57,10,5,2,26,16,38,0.25,8,Rain-Thunderstorm,166
2013-11-17,68,55,41,63,53,35,93,85,76,29.77,29.42,29.20,10,8,1,41,21,53,0.85,7,Rain-Thunderstorm,212
2013-11-18,44,35,26,35,29,23,85,69,53,30.28,30.04,29.78,10,10,10,30,16,37,0.00,1,,286
2013-11-19,42,32,21,28,24,19,92,73,53,30.39,30.34,30.30,10,10,8,9,5,12,0.00,0,,128
2013-11-20,43,36,28,37,30,25,92,75,57,30.30,30.21,30.12,10,8,4,21,10,28,0.21,4,Rain,135
2013-11-21,49,45,40,45,42,37,93,87,80,30.22,30.17,30.12,8,5,3,9,3,12,0.03,8,Rain,355
2013-11-22,42,34,25,39,31,21,93,82,70,30.50,30.39,30.21,10,8,3,21,11,24,0.01,6,Rain,327
2013-11-23,25,19,13,20,11,5,88,67,46,30.74,30.60,30.47,10,10,6,28,14,36,T,2,Snow,322
2013-11-24,26,17,8,10,6,3,80,59,38,30.77,30.63,30.42,10,10,10,15,8,21,0.00,0,,245
2013-11-25,32,27,21,27,21,10,85,69,53,30.39,30.16,30.09,10,8,2,21,13,28,0.00,7,Snow,219
2013-11-26,34,25,15,27,21,5,85,68,51,30.21,30.10,30.03,10,9,5,28,12,35,T,7,Snow,301
2013-11-27,28,19,10,15,9,4,77,64,50,30.29,30.26,30.19,10,10,10,22,10,26,0.00,1,,311
2013-11-28,34,24,13,17,13,10,88,68,47,30.53,30.32,30.22,10,10,10,17,8,22,0.00,3,,240
2013-11-29,35,22,9,21,15,5,92,68,44,30.66,30.56,30.42,10,9,8,13,5,15,0.00,0,,153
2013-11-30,50,37,24,30,25,21,92,69,46,30.40,30.20,30.08,10,8,4,16,7,22,0.00,0,,182